createdAt,value
2018-07-04T00:01:57.035Z,3.70
2018-07-04T00:04:36.227Z,3.40
2018-07-04T00:07:15.089Z,3.60
2018-07-04T00:09:54.190Z,2.97
2018-07-04T00:12:33.459Z,3.30
2018-07-04T00:15:12.494Z,3.53
2018-07-04T00:17:51.333Z,3.30
2018-07-04T00:20:36.125Z,3.13
2018-07-04T00:23:15.157Z,3.50
2018-07-04T00:25:54.056Z,3.50
2018-07-04T00:28:33.056Z,3.80
2018-07-04T00:31:12.260Z,3.43
2018-07-04T00:33:51.311Z,3.60
2018-07-04T00:36:30.190Z,3.23
2018-07-04T00:39:09.060Z,3.70
2018-07-04T00:41:49.029Z,5.70
2018-07-04T00:44:28.749Z,3.90
2018-07-04T00:47:07.777Z,3.80
2018-07-04T00:49:46.589Z,4.37
2018-07-04T00:52:25.539Z,4.03
2018-07-04T00:55:04.656Z,3.93
2018-07-04T00:57:43.710Z,3.90
2018-07-04T01:00:23.043Z,3.87
2018-07-04T01:03:02.014Z,4.60
2018-07-04T01:05:41.099Z,4.33
2018-07-04T01:08:20.185Z,3.90
2018-07-04T01:10:59.256Z,4.20
2018-07-04T01:13:38.258Z,4.13
2018-07-04T01:16:17.240Z,4.00
2018-07-04T01:18:56.366Z,4.30
2018-07-04T01:21:29.493Z,4.43
2018-07-04T01:24:08.412Z,4.60
2018-07-04T01:26:47.288Z,4.97
2018-07-04T01:29:26.427Z,4.60
2018-07-04T01:32:05.656Z,4.77
2018-07-04T01:34:44.850Z,4.27
2018-07-04T01:37:23.764Z,5.23
2018-07-04T01:40:02.730Z,4.90
2018-07-04T01:42:41.617Z,4.57
2018-07-04T01:45:20.726Z,4.30
2018-07-04T01:47:59.664Z,4.67
2018-07-04T01:50:38.505Z,5.87
2018-07-04T01:53:17.445Z,4.50
2018-07-04T01:55:56.297Z,4.33
2018-07-04T01:58:35.257Z,5.20
2018-07-04T02:01:14.314Z,5.00
2018-07-04T02:03:53.430Z,4.87
2018-07-04T02:06:32.369Z,5.37
2018-07-04T02:09:11.492Z,5.53
2018-07-04T02:11:50.269Z,4.73
2018-07-04T02:14:29.320Z,5.00
2018-07-04T02:17:08.484Z,5.97
2018-07-04T02:19:47.668Z,4.87
2018-07-04T02:22:26.608Z,5.40
2018-07-04T02:25:05.554Z,5.73
2018-07-04T02:27:44.384Z,5.10
2018-07-04T02:30:23.471Z,5.30
2018-07-04T02:33:02.391Z,5.60
2018-07-04T02:35:41.330Z,5.27
2018-07-04T02:38:20.276Z,5.83
2018-07-04T02:40:59.295Z,5.57
2018-07-04T02:43:38.336Z,6.20
2018-07-04T02:46:22.924Z,6.70
2018-07-04T02:49:02.161Z,8.43
2018-07-04T02:51:41.208Z,5.67
2018-07-04T02:54:20.220Z,6.00
2018-07-04T02:56:59.092Z,5.40
2018-07-04T02:59:37.928Z,6.53
2018-07-04T03:02:17.033Z,5.87
2018-07-04T03:04:55.938Z,5.63
2018-07-04T03:07:34.804Z,7.13
2018-07-04T03:10:13.880Z,6.93
2018-07-04T03:12:52.861Z,6.90
2018-07-04T03:15:31.797Z,6.00
2018-07-04T03:18:10.737Z,5.97
2018-07-04T03:20:49.635Z,6.73
2018-07-04T03:23:28.551Z,6.93
2018-07-04T03:26:07.579Z,6.77
2018-07-04T03:28:46.572Z,6.50
2018-07-04T03:31:25.565Z,6.43
2018-07-04T03:34:04.657Z,6.87
2018-07-04T03:36:43.593Z,7.83
2018-07-04T03:39:22.699Z,7.47
2018-07-04T03:42:01.725Z,7.07
2018-07-04T03:44:40.757Z,7.73
2018-07-04T03:47:19.705Z,7.33
2018-07-04T03:49:58.652Z,6.80
2018-07-04T03:52:37.569Z,7.47
2018-07-04T03:55:16.504Z,8.03
2018-07-04T03:57:55.351Z,8.73
2018-07-04T04:00:34.141Z,7.93
2018-07-04T04:03:13.222Z,7.97
2018-07-04T04:05:52.115Z,8.07
2018-07-04T04:08:31.173Z,9.07
2018-07-04T04:11:04.450Z,7.53
2018-07-04T04:13:43.425Z,8.10
2018-07-04T04:16:22.349Z,8.40
2018-07-04T04:19:01.224Z,8.83
2018-07-04T04:21:40.174Z,8.23
2018-07-04T04:24:19.287Z,8.40
2018-07-04T04:26:58.276Z,8.20
2018-07-04T04:29:37.208Z,8.90
2018-07-04T04:32:16.173Z,8.30
2018-07-04T04:34:55.313Z,8.47
2018-07-04T04:37:34.265Z,8.27
2018-07-04T04:40:13.173Z,8.43
2018-07-04T04:42:52.040Z,8.67
2018-07-04T04:45:30.985Z,7.90
2018-07-04T04:48:09.865Z,7.57
2018-07-04T04:50:49.105Z,6.93
2018-07-04T04:53:28.008Z,7.77
2018-07-04T04:56:07.110Z,8.13
2018-07-04T04:58:45.967Z,8.77
2018-07-04T05:01:24.842Z,8.03
2018-07-04T05:04:03.821Z,8.40
2018-07-04T05:06:42.732Z,8.53
2018-07-04T05:09:21.726Z,8.77
2018-07-04T05:12:00.672Z,8.50
2018-07-04T05:14:39.790Z,8.60
2018-07-04T05:17:18.834Z,8.27
2018-07-04T05:19:57.810Z,8.03
2018-07-04T05:22:36.721Z,8.30
2018-07-04T05:25:15.745Z,7.97
2018-07-04T05:27:54.908Z,8.57
2018-07-04T05:30:33.956Z,7.70
2018-07-04T05:33:12.949Z,8.30
2018-07-04T05:35:51.925Z,8.73
2018-07-04T05:38:30.848Z,8.20
2018-07-04T05:41:09.817Z,9.00
2018-07-04T05:43:48.727Z,8.60
2018-07-04T05:46:27.790Z,8.53
2018-07-04T05:49:06.682Z,8.20
2018-07-04T05:51:45.730Z,9.50
2018-07-04T05:54:24.670Z,8.00
2018-07-04T05:57:03.675Z,8.93
2018-07-04T05:59:42.600Z,9.37
2018-07-04T06:02:21.689Z,8.47
2018-07-04T06:05:00.689Z,9.17
2018-07-04T06:07:39.686Z,8.20
2018-07-04T06:10:18.565Z,8.87
2018-07-04T06:12:57.638Z,8.63
2018-07-04T06:15:36.478Z,8.07
2018-07-04T06:18:15.542Z,8.47
2018-07-04T06:20:54.829Z,9.00
2018-07-04T06:23:33.908Z,8.40
2018-07-04T06:26:12.869Z,8.50
2018-07-04T06:28:51.705Z,7.87
2018-07-04T06:31:30.695Z,8.70
2018-07-04T06:34:09.937Z,8.30
2018-07-04T06:36:48.853Z,8.33
2018-07-04T06:39:15.429Z,7.93
2018-07-04T06:41:42.042Z,8.07
2018-07-04T06:44:08.581Z,7.70
2018-07-04T06:46:35.078Z,8.60
2018-07-04T06:49:01.680Z,7.53
2018-07-04T06:51:28.156Z,7.43
2018-07-04T06:53:54.643Z,7.33
2018-07-04T06:56:21.152Z,7.13
2018-07-04T06:58:47.688Z,7.03
2018-07-04T07:01:14.164Z,6.90
2018-07-04T07:03:53.188Z,7.03
2018-07-04T07:06:32.239Z,6.03
2018-07-04T07:09:11.091Z,5.80
2018-07-04T07:11:50.190Z,6.00
2018-07-04T07:14:29.138Z,5.90
2018-07-04T07:17:08.122Z,5.90
2018-07-04T07:19:46.857Z,4.77
2018-07-04T07:22:25.856Z,4.57
2018-07-04T07:25:04.760Z,4.63
2018-07-04T07:27:43.740Z,4.13
2018-07-04T07:30:22.793Z,3.70
2018-07-04T07:33:01.999Z,3.30
2018-07-04T07:35:41.063Z,3.37
2018-07-04T07:38:19.987Z,3.17
2018-07-04T07:40:58.836Z,3.37
2018-07-04T07:43:37.652Z,2.92
2018-07-04T07:46:16.708Z,2.67
2018-07-04T07:48:55.736Z,2.62
2018-07-04T07:51:28.909Z,2.55
2018-07-04T07:54:07.831Z,2.60
2018-07-04T07:56:46.940Z,2.80
2018-07-04T07:59:25.975Z,2.40
2018-07-04T08:02:04.817Z,2.40
2018-07-04T08:04:43.829Z,3.33
2018-07-04T08:07:22.816Z,2.65
2018-07-04T08:10:01.805Z,2.80
2018-07-04T08:12:40.688Z,2.67
2018-07-04T08:15:19.640Z,2.85
2018-07-04T08:17:58.452Z,3.10
2018-07-04T08:20:37.270Z,2.98
2018-07-04T08:23:16.431Z,2.77
2018-07-04T08:25:55.506Z,2.75
2018-07-04T08:28:34.647Z,3.05
2018-07-04T08:31:13.485Z,2.98
2018-07-04T08:33:52.364Z,2.98
2018-07-04T08:36:31.357Z,2.85
2018-07-04T08:39:10.345Z,3.05
2018-07-04T08:41:49.134Z,3.77
2018-07-04T08:44:27.969Z,3.25
2018-07-04T08:47:07.163Z,3.10
2018-07-04T08:49:46.022Z,3.20
2018-07-04T08:52:25.191Z,3.37
2018-07-04T08:55:04.163Z,3.10
2018-07-04T08:57:43.313Z,2.95
2018-07-04T09:00:22.314Z,3.22
2018-07-04T09:03:01.287Z,3.67
2018-07-04T09:05:40.364Z,5.72
2018-07-04T09:08:19.364Z,6.72
2018-07-04T09:10:58.349Z,6.60
2018-07-04T09:13:37.315Z,6.35
2018-07-04T09:16:16.290Z,6.40
2018-07-04T09:18:55.317Z,7.10
2018-07-04T09:21:28.329Z,6.50
2018-07-04T09:24:07.394Z,6.30
2018-07-04T09:26:46.343Z,5.83
2018-07-04T09:29:25.421Z,5.97
2018-07-04T09:32:04.381Z,5.25
2018-07-04T09:34:43.333Z,7.42
2018-07-04T09:37:22.326Z,6.85
2018-07-04T09:40:01.316Z,6.50
2018-07-04T09:42:40.255Z,7.12
2018-07-04T09:45:19.298Z,6.12
2018-07-04T09:47:58.304Z,6.42
2018-07-04T09:50:37.386Z,5.97
2018-07-04T09:53:16.601Z,5.55
2018-07-04T09:55:55.609Z,5.45
2018-07-04T09:58:34.668Z,5.10
2018-07-04T10:01:19.304Z,4.20
2018-07-04T10:03:58.333Z,4.40
2018-07-04T10:06:37.249Z,4.40
2018-07-04T10:09:16.294Z,3.95
2018-07-04T10:11:55.168Z,3.85
2018-07-04T10:14:34.038Z,4.33
2018-07-04T10:17:12.938Z,4.30
2018-07-04T10:19:51.899Z,4.58
2018-07-04T10:22:30.739Z,4.78
2018-07-04T10:25:09.776Z,4.20
2018-07-04T10:27:48.901Z,5.05
2018-07-04T10:30:28.034Z,4.35
2018-07-04T10:33:06.884Z,5.15
2018-07-04T10:35:45.862Z,4.72
2018-07-04T10:38:24.686Z,5.03
2018-07-04T10:41:03.565Z,3.62
2018-07-04T10:43:42.520Z,4.45
2018-07-04T10:46:21.309Z,5.50
2018-07-04T10:49:00.369Z,5.25
2018-07-04T10:51:39.417Z,6.15
2018-07-04T10:54:18.676Z,6.00
2018-07-04T10:56:57.513Z,5.75
2018-07-04T10:59:36.487Z,6.90
2018-07-04T11:02:15.326Z,5.67
2018-07-04T11:04:54.255Z,5.78
2018-07-04T11:07:33.217Z,5.97
2018-07-04T11:10:12.082Z,6.28
2018-07-04T11:12:51.137Z,6.42
2018-07-04T11:15:30.241Z,4.33
2018-07-04T11:18:09.312Z,4.37
2018-07-04T11:20:48.259Z,4.40
2018-07-04T11:23:27.093Z,5.45
2018-07-04T11:26:05.933Z,4.97
2018-07-04T11:28:45.014Z,5.40
2018-07-04T11:31:24.097Z,4.85
2018-07-04T11:34:03.038Z,4.62
2018-07-04T11:36:41.977Z,6.58
2018-07-04T11:39:20.945Z,5.30
2018-07-04T11:41:59.978Z,5.50
2018-07-04T11:44:38.910Z,7.00
2018-07-04T11:47:05.415Z,5.55
2018-07-04T11:49:32.163Z,5.47
2018-07-04T11:51:58.698Z,5.25
2018-07-04T11:54:25.286Z,6.55
2018-07-04T11:56:51.941Z,6.17
2018-07-04T11:59:18.610Z,7.37
2018-07-04T12:01:45.291Z,6.30
2018-07-04T12:04:24.621Z,6.58
2018-07-04T12:07:08.422Z,6.80
2018-07-04T12:09:36.276Z,6.62
2018-07-04T12:12:02.894Z,6.62
2018-07-04T12:14:30.066Z,8.20
2018-07-04T12:16:56.956Z,8.75
2018-07-04T12:19:23.974Z,8.18
2018-07-04T12:21:50.601Z,6.80
2018-07-04T12:24:17.217Z,8.65
2018-07-04T12:26:43.897Z,8.68
2018-07-04T12:29:10.901Z,7.37
2018-07-04T12:31:37.876Z,8.50
2018-07-04T12:34:04.525Z,9.75
2018-07-04T12:36:31.169Z,7.72
2018-07-04T12:38:57.763Z,6.92
2018-07-04T12:41:24.385Z,7.20
2018-07-04T12:43:51.098Z,6.15
2018-07-04T12:46:17.624Z,6.10
2018-07-04T12:48:44.343Z,6.15
2018-07-04T12:51:11.071Z,5.92
2018-07-04T12:53:37.813Z,7.20
2018-07-04T12:56:16.899Z,7.45
2018-07-04T12:58:56.182Z,6.70
2018-07-04T13:01:35.229Z,4.40
2018-07-04T13:04:14.260Z,4.53
2018-07-04T13:06:53.267Z,4.08
2018-07-04T13:09:32.362Z,3.15
2018-07-04T13:12:11.649Z,3.00
2018-07-04T13:14:50.887Z,2.95
2018-07-04T13:17:30.027Z,3.33
2018-07-04T13:20:09.276Z,3.10
2018-07-04T13:22:48.463Z,3.58
2018-07-04T13:25:27.646Z,3.17
2018-07-04T13:28:06.651Z,3.02
2018-07-04T13:30:45.821Z,2.70
2018-07-04T13:33:24.995Z,3.05
2018-07-04T13:36:04.061Z,3.30
2018-07-04T13:38:43.291Z,3.27
2018-07-04T13:41:22.544Z,3.95
2018-07-04T13:44:01.558Z,3.75
2018-07-04T13:46:40.779Z,3.70
2018-07-04T13:49:19.992Z,4.00
2018-07-04T13:51:59.185Z,3.10
2018-07-04T13:54:38.212Z,4.25
2018-07-04T13:57:17.241Z,4.00
2018-07-04T13:59:56.448Z,4.12
2018-07-04T14:02:35.587Z,4.45
2018-07-04T14:05:14.644Z,5.42
2018-07-04T14:07:53.706Z,4.83
2018-07-04T14:10:32.885Z,4.58
2018-07-04T14:13:11.925Z,5.45
2018-07-04T14:15:51.023Z,4.75
2018-07-04T14:18:29.995Z,4.90
2018-07-04T14:21:09.074Z,4.65
2018-07-04T14:23:48.244Z,5.83
2018-07-04T14:26:27.271Z,5.70
2018-07-04T14:29:06.617Z,5.65
2018-07-04T14:31:45.802Z,6.40
2018-07-04T14:34:25.031Z,5.80
2018-07-04T14:37:04.184Z,6.95
2018-07-04T14:39:43.268Z,6.62
2018-07-04T14:42:22.326Z,7.17
2018-07-04T14:45:01.414Z,6.58
2018-07-04T14:47:40.495Z,6.92
2018-07-04T14:50:19.603Z,6.58
2018-07-04T14:52:58.718Z,7.87
2018-07-04T14:55:37.884Z,7.85
2018-07-04T14:58:17.143Z,7.58
2018-07-04T15:00:56.238Z,7.60
2018-07-04T15:03:35.458Z,7.55
2018-07-04T15:06:14.561Z,7.75
2018-07-04T15:08:53.661Z,6.42
2018-07-04T15:11:32.807Z,6.97
2018-07-04T15:14:12.008Z,7.50
2018-07-04T15:16:51.181Z,8.40
2018-07-04T15:19:30.525Z,8.45
2018-07-04T15:22:09.801Z,9.58
2018-07-04T15:24:48.900Z,9.80
2018-07-04T15:27:28.158Z,8.83
2018-07-04T15:30:07.128Z,9.48
2018-07-04T15:32:46.346Z,10.30
2018-07-04T15:35:25.392Z,9.85
2018-07-04T15:38:04.713Z,8.63
2018-07-04T15:40:43.874Z,10.35
2018-07-04T15:43:23.071Z,8.55
2018-07-04T15:46:02.282Z,8.93
2018-07-04T15:48:41.826Z,9.10
2018-07-04T15:51:21.717Z,9.18
2018-07-04T15:54:00.676Z,10.80
2018-07-04T15:56:39.835Z,10.28
2018-07-04T15:59:19.052Z,8.13
2018-07-04T16:01:58.177Z,8.13
2018-07-04T16:04:37.418Z,8.43
2018-07-04T16:07:16.624Z,8.03
2018-07-04T16:09:55.924Z,8.45
2018-07-04T16:12:35.061Z,7.85
2018-07-04T16:15:14.310Z,7.15
2018-07-04T16:17:53.387Z,7.47
2018-07-04T16:20:32.720Z,8.38
2018-07-04T16:23:11.818Z,10.00
2018-07-04T16:25:50.964Z,8.38
2018-07-04T16:28:30.029Z,9.23
2018-07-04T16:31:09.220Z,9.08
2018-07-04T16:33:48.481Z,7.78
2018-07-04T16:36:27.875Z,8.85
2018-07-04T16:39:07.135Z,7.95
2018-07-04T16:41:46.183Z,8.83
2018-07-04T16:44:25.375Z,8.38
2018-07-04T16:47:04.560Z,8.60
2018-07-04T16:49:43.639Z,7.97
2018-07-04T16:52:22.874Z,9.00
2018-07-04T16:55:01.867Z,10.63
2018-07-04T16:57:41.055Z,8.23
2018-07-04T17:00:19.998Z,7.67
2018-07-04T17:02:59.140Z,8.37
2018-07-04T17:05:38.288Z,8.25
2018-07-04T17:08:17.346Z,7.78
2018-07-04T17:10:56.476Z,8.15
2018-07-04T17:13:35.827Z,7.65
2018-07-04T17:16:15.179Z,7.87
2018-07-04T17:18:54.050Z,7.37
2018-07-04T17:21:33.211Z,7.55
2018-07-04T17:24:12.436Z,7.17
2018-07-04T17:26:51.616Z,7.65
2018-07-04T17:29:31.566Z,7.17
2018-07-04T17:32:10.775Z,7.42
2018-07-04T17:34:49.829Z,6.78
2018-07-04T17:37:29.102Z,7.33
2018-07-04T17:40:08.281Z,7.92
2018-07-04T17:42:47.480Z,6.83
2018-07-04T17:45:26.508Z,7.50
2018-07-04T17:48:05.589Z,6.83
2018-07-04T17:50:44.723Z,8.10
2018-07-04T17:53:23.743Z,8.40
2018-07-04T17:56:03.073Z,7.03
2018-07-04T17:58:42.236Z,7.33
2018-07-04T18:01:21.377Z,7.83
2018-07-04T18:04:00.613Z,7.95
2018-07-04T18:06:39.620Z,7.50
2018-07-04T18:09:12.871Z,8.93
2018-07-04T18:11:52.173Z,8.80
2018-07-04T18:14:31.160Z,8.80
2018-07-04T18:17:10.202Z,9.27
2018-07-04T18:19:49.395Z,9.27
2018-07-04T18:22:28.659Z,8.07
2018-07-04T18:25:07.928Z,9.23
2018-07-04T18:27:47.436Z,7.90
2018-07-04T18:30:26.917Z,7.77
2018-07-04T18:33:06.146Z,7.77
2018-07-04T18:35:45.307Z,8.67
2018-07-04T18:38:24.322Z,8.27
2018-07-04T18:41:03.537Z,8.57
2018-07-04T18:43:42.705Z,7.97
2018-07-04T18:46:21.902Z,7.77
2018-07-04T18:49:01.090Z,7.87
2018-07-04T18:51:40.014Z,8.33
2018-07-04T18:54:19.035Z,7.33
2018-07-04T18:56:57.989Z,7.60
2018-07-04T18:59:37.260Z,7.67
2018-07-04T19:02:16.376Z,7.53
2018-07-04T19:04:55.570Z,7.40
2018-07-04T19:07:34.699Z,8.03
2018-07-04T19:10:13.770Z,7.43
2018-07-04T19:12:52.823Z,7.00
2018-07-04T19:15:32.044Z,7.00
2018-07-04T19:18:11.232Z,7.23
2018-07-04T19:20:50.369Z,7.33
2018-07-04T19:23:29.728Z,6.97
2018-07-04T19:26:09.176Z,7.23
2018-07-04T19:28:48.395Z,6.67
2018-07-04T19:31:27.452Z,7.17
2018-07-04T19:34:06.677Z,6.80
2018-07-04T19:36:45.855Z,7.30
2018-07-04T19:39:24.876Z,7.00
2018-07-04T19:42:03.827Z,6.47
2018-07-04T19:44:37.138Z,8.03
2018-07-04T19:47:17.301Z,6.40
2018-07-04T19:49:56.649Z,6.27
2018-07-04T19:52:35.832Z,6.73
2018-07-04T19:55:15.235Z,6.77
2018-07-04T19:57:54.680Z,7.13
2018-07-04T20:00:33.761Z,6.23
2018-07-04T20:03:12.873Z,7.30
2018-07-04T20:05:52.114Z,6.47
2018-07-04T20:08:31.216Z,6.23
2018-07-04T20:11:10.416Z,6.73
2018-07-04T20:13:49.485Z,5.87
2018-07-04T20:16:28.722Z,6.73
2018-07-04T20:19:07.904Z,6.80
2018-07-04T20:21:46.970Z,5.63
2018-07-04T20:24:26.104Z,6.13
2018-07-04T20:27:05.305Z,6.37
2018-07-04T20:29:44.525Z,5.93
2018-07-04T20:32:23.684Z,6.43
2018-07-04T20:35:02.761Z,6.97
2018-07-04T20:37:41.937Z,7.20
2018-07-04T20:40:21.005Z,6.47
2018-07-04T20:43:00.110Z,5.77
2018-07-04T20:45:39.258Z,6.50
2018-07-04T20:48:18.328Z,6.20
2018-07-04T20:50:57.589Z,6.23
2018-07-04T20:53:36.649Z,6.43
2018-07-04T20:56:15.938Z,6.37
2018-07-04T20:58:55.342Z,5.70
2018-07-04T21:01:34.435Z,6.67
2018-07-04T21:04:13.703Z,6.53
2018-07-04T21:06:52.679Z,7.23
2018-07-04T21:09:31.952Z,6.30
2018-07-04T21:12:10.999Z,6.67
2018-07-04T21:14:50.056Z,6.67
2018-07-04T21:17:29.103Z,6.67
2018-07-04T21:20:08.325Z,6.27
2018-07-04T21:22:47.555Z,6.53
2018-07-04T21:25:26.681Z,6.70
2018-07-04T21:28:05.957Z,7.23
2018-07-04T21:30:45.081Z,7.10
2018-07-04T21:33:24.120Z,6.80
2018-07-04T21:36:03.428Z,7.23
2018-07-04T21:38:42.528Z,7.03
2018-07-04T21:41:15.863Z,7.30
2018-07-04T21:43:54.821Z,7.33
2018-07-04T21:46:33.955Z,7.50
2018-07-04T21:49:12.980Z,7.17
2018-07-04T21:51:52.059Z,8.50
2018-07-04T21:54:31.085Z,8.13
2018-07-04T21:57:10.221Z,8.53
2018-07-04T21:59:49.330Z,8.27
2018-07-04T22:02:28.327Z,6.53
2018-07-04T22:05:07.457Z,6.10
2018-07-04T22:07:46.527Z,6.77
2018-07-04T22:10:25.508Z,5.87
2018-07-04T22:13:04.512Z,5.33
2018-07-04T22:15:43.626Z,4.97
2018-07-04T22:18:22.642Z,4.97
2018-07-04T22:21:01.743Z,5.03
2018-07-04T22:23:40.782Z,5.70
2018-07-04T22:26:20.069Z,5.33
2018-07-04T22:28:59.248Z,5.67
2018-07-04T22:31:38.502Z,6.03
2018-07-04T22:34:17.822Z,5.10
2018-07-04T22:36:57.069Z,5.53
2018-07-04T22:39:36.213Z,6.03
2018-07-04T22:42:15.432Z,5.17
2018-07-04T22:44:54.622Z,5.87
2018-07-04T22:47:33.532Z,5.43
2018-07-04T22:50:12.448Z,6.00
2018-07-04T22:52:51.743Z,6.50
2018-07-04T22:55:30.867Z,5.37
2018-07-04T22:58:09.924Z,5.93
2018-07-04T23:00:48.914Z,4.90
2018-07-04T23:03:28.113Z,5.10
2018-07-04T23:06:07.384Z,4.70
2018-07-04T23:08:46.444Z,4.83
2018-07-04T23:11:25.401Z,5.70
2018-07-04T23:14:04.766Z,4.87
2018-07-04T23:16:44.005Z,5.23
2018-07-04T23:19:22.997Z,5.07
2018-07-04T23:22:01.989Z,4.10
2018-07-04T23:24:41.198Z,4.40
2018-07-04T23:27:20.291Z,4.27
2018-07-04T23:29:59.390Z,3.77
2018-07-04T23:32:38.308Z,3.80
2018-07-04T23:35:17.448Z,3.30
2018-07-04T23:37:56.758Z,3.20
2018-07-04T23:40:35.977Z,3.20
2018-07-04T23:43:14.986Z,3.17
2018-07-04T23:45:54.095Z,2.73
2018-07-04T23:48:33.139Z,2.73
2018-07-04T23:51:12.327Z,3.50
2018-07-04T23:53:51.448Z,2.77
2018-07-04T23:56:30.478Z,3.37
2018-07-04T23:59:09.549Z,2.87
